sensor_id;sensor_type;location;lat;lon;timestamp;P1;durP1;ratioP1;P2;durP2;ratioP2
40591;SDS011;26301;42.832;23.918;2023-03-01T00:01:24;323.90;;;11.47;;
40591;SDS011;26301;42.832;23.918;2023-03-01T00:03:51;292.13;;;10.03;;
40591;SDS011;26301;42.832;23.918;2023-03-01T00:06:18;408.63;;;14.57;;
40591;SDS011;26301;42.832;23.918;2023-03-01T00:08:45;341.57;;;14.23;;
40591;SDS011;26301;42.832;23.918;2023-03-01T00:11:16;226.27;;;8.93;;
40591;SDS011;26301;42.832;23.918;2023-03-01T00:13:47;156.40;;;7.17;;
40591;SDS011;26301;42.832;23.918;2023-03-01T00:16:18;135.87;;;7.23;;
40591;SDS011;26301;42.832;23.918;2023-03-01T00:18:45;273.38;;;10.55;;
40591;SDS011;26301;42.832;23.918;2023-03-01T00:21:11;176.63;;;8.53;;
40591;SDS011;26301;42.832;23.918;2023-03-01T00:23:37;331.80;;;13.03;;
40591;SDS011;26301;42.832;23.918;2023-03-01T00:26:11;306.13;;;11.27;;
40591;SDS011;26301;42.832;23.918;2023-03-01T00:28:38;221.13;;;8.97;;
40591;SDS011;26301;42.832;23.918;2023-03-01T00:31:05;165.87;;;7.53;;
40591;SDS011;26301;42.832;23.918;2023-03-01T00:33:32;204.07;;;9.57;;
40591;SDS011;26301;42.832;23.918;2023-03-01T00:35:58;159.63;;;7.43;;
40591;SDS011;26301;42.832;23.918;2023-03-01T00:38:24;116.70;;;7.20;;
40591;SDS011;26301;42.832;23.918;2023-03-01T00:40:50;96.63;;;6.20;;
40591;SDS011;26301;42.832;23.918;2023-03-01T00:43:15;129.63;;;6.23;;
40591;SDS011;26301;42.832;23.918;2023-03-01T00:45:41;103.27;;;5.13;;
40591;SDS011;26301;42.832;23.918;2023-03-01T00:48:06;78.87;;;5.10;;
40591;SDS011;26301;42.832;23.918;2023-03-01T00:50:32;89.67;;;6.07;;
40591;SDS011;26301;42.832;23.918;2023-03-01T00:52:57;107.03;;;6.17;;
40591;SDS011;26301;42.832;23.918;2023-03-01T00:55:23;199.50;;;7.53;;
40591;SDS011;26301;42.832;23.918;2023-03-01T00:57:49;119.73;;;6.93;;
40591;SDS011;26301;42.832;23.918;2023-03-01T01:00:14;171.20;;;7.20;;
40591;SDS011;26301;42.832;23.918;2023-03-01T01:02:40;331.17;;;11.53;;
40591;SDS011;26301;42.832;23.918;2023-03-01T01:05:06;149.03;;;7.70;;
40591;SDS011;26301;42.832;23.918;2023-03-01T01:07:32;172.83;;;6.90;;
40591;SDS011;26301;42.832;23.918;2023-03-01T01:09:58;314.97;;;11.00;;
40591;SDS011;26301;42.832;23.918;2023-03-01T01:12:23;237.83;;;16.63;;
40591;SDS011;26301;42.832;23.918;2023-03-01T01:14:49;267.17;;;10.27;;
40591;SDS011;26301;42.832;23.918;2023-03-01T01:17:14;238.37;;;9.33;;
40591;SDS011;26301;42.832;23.918;2023-03-01T01:19:40;98.57;;;5.57;;
40591;SDS011;26301;42.832;23.918;2023-03-01T01:22:06;80.67;;;4.67;;
40591;SDS011;26301;42.832;23.918;2023-03-01T01:24:31;334.77;;;14.23;;
40591;SDS011;26301;42.832;23.918;2023-03-01T01:26:57;331.77;;;12.33;;
40591;SDS011;26301;42.832;23.918;2023-03-01T01:29:22;363.20;;;16.07;;
40591;SDS011;26301;42.832;23.918;2023-03-01T01:31:48;211.00;;;8.97;;
40591;SDS011;26301;42.832;23.918;2023-03-01T01:34:22;208.83;;;8.37;;
40591;SDS011;26301;42.832;23.918;2023-03-01T01:36:48;187.77;;;6.60;;
40591;SDS011;26301;42.832;23.918;2023-03-01T01:39:15;47.07;;;4.07;;
40591;SDS011;26301;42.832;23.918;2023-03-01T01:41:41;139.30;;;5.83;;
40591;SDS011;26301;42.832;23.918;2023-03-01T01:44:23;19.13;;;3.60;;
40591;SDS011;26301;42.832;23.918;2023-03-01T01:46:55;24.63;;;3.37;;
40591;SDS011;26301;42.832;23.918;2023-03-01T01:52:14;12.43;;;2.60;;
40591;SDS011;26301;42.832;23.918;2023-03-01T01:54:51;39.67;;;4.23;;
40591;SDS011;26301;42.832;23.918;2023-03-01T01:57:27;85.07;;;5.23;;
40591;SDS011;26301;42.832;23.918;2023-03-01T01:59:59;83.87;;;5.20;;
40591;SDS011;26301;42.832;23.918;2023-03-01T02:02:30;99.10;;;4.67;;
40591;SDS011;26301;42.832;23.918;2023-03-01T02:05:02;42.17;;;3.60;;
40591;SDS011;26301;42.832;23.918;2023-03-01T02:07:35;39.72;;;3.28;;
40591;SDS011;26301;42.832;23.918;2023-03-01T02:10:03;41.23;;;3.30;;
40591;SDS011;26301;42.832;23.918;2023-03-01T02:12:29;23.73;;;3.00;;
40591;SDS011;26301;42.832;23.918;2023-03-01T02:14:55;57.07;;;3.20;;
40591;SDS011;26301;42.832;23.918;2023-03-01T02:17:21;50.97;;;3.20;;
40591;SDS011;26301;42.832;23.918;2023-03-01T02:19:51;91.60;;;4.17;;
40591;SDS011;26301;42.832;23.918;2023-03-01T02:30:36;66.27;;;3.63;;
40591;SDS011;26301;42.832;23.918;2023-03-01T02:33:02;156.87;;;5.70;;
40591;SDS011;26301;42.832;23.918;2023-03-01T02:35:30;214.73;;;8.83;;
40591;SDS011;26301;42.832;23.918;2023-03-01T02:37:59;52.27;;;4.27;;
40591;SDS011;26301;42.832;23.918;2023-03-01T02:40:27;112.13;;;5.10;;
40591;SDS011;26301;42.832;23.918;2023-03-01T02:42:56;86.07;;;3.93;;
40591;SDS011;26301;42.832;23.918;2023-03-01T02:45:23;142.53;;;10.07;;
40591;SDS011;26301;42.832;23.918;2023-03-01T02:47:49;58.80;;;4.03;;
40591;SDS011;26301;42.832;23.918;2023-03-01T02:55:57;55.97;;;4.87;;
40591;SDS011;26301;42.832;23.918;2023-03-01T02:58:24;135.60;;;6.80;;
40591;SDS011;26301;42.832;23.918;2023-03-01T03:00:49;73.20;;;4.23;;
40591;SDS011;26301;42.832;23.918;2023-03-01T03:03:19;126.87;;;4.67;;
40591;SDS011;26301;42.832;23.918;2023-03-01T03:05:46;65.07;;;3.13;;
40591;SDS011;26301;42.832;23.918;2023-03-01T03:08:12;57.73;;;3.43;;
40591;SDS011;26301;42.832;23.918;2023-03-01T03:10:39;48.37;;;3.67;;
40591;SDS011;26301;42.832;23.918;2023-03-01T03:13:10;58.03;;;3.57;;
40591;SDS011;26301;42.832;23.918;2023-03-01T03:15:38;72.23;;;3.60;;
40591;SDS011;26301;42.832;23.918;2023-03-01T03:18:06;41.13;;;3.13;;
40591;SDS011;26301;42.832;23.918;2023-03-01T03:20:34;73.80;;;3.93;;
40591;SDS011;26301;42.832;23.918;2023-03-01T03:23:01;79.67;;;4.13;;
40591;SDS011;26301;42.832;23.918;2023-03-01T03:25:27;40.60;;;2.93;;
40591;SDS011;26301;42.832;23.918;2023-03-01T03:27:54;31.93;;;2.67;;
40591;SDS011;26301;42.832;23.918;2023-03-01T03:30:24;34.97;;;2.63;;
40591;SDS011;26301;42.832;23.918;2023-03-01T03:32:52;9.33;;;1.93;;
40591;SDS011;26301;42.832;23.918;2023-03-01T03:35:26;12.10;;;2.03;;
40591;SDS011;26301;42.832;23.918;2023-03-01T03:37:53;2.23;;;1.20;;
40591;SDS011;26301;42.832;23.918;2023-03-01T03:40:39;3.30;;;1.70;;
40591;SDS011;26301;42.832;23.918;2023-03-01T03:43:09;2.63;;;1.27;;
40591;SDS011;26301;42.832;23.918;2023-03-01T03:45:46;3.60;;;2.10;;
40591;SDS011;26301;42.832;23.918;2023-03-01T03:48:12;4.17;;;1.70;;
40591;SDS011;26301;42.832;23.918;2023-03-01T03:50:38;3.30;;;1.77;;
40591;SDS011;26301;42.832;23.918;2023-03-01T03:53:06;2.40;;;1.50;;
40591;SDS011;26301;42.832;23.918;2023-03-01T03:55:35;5.23;;;2.00;;
40591;SDS011;26301;42.832;23.918;2023-03-01T03:58:04;3.30;;;1.63;;
40591;SDS011;26301;42.832;23.918;2023-03-01T04:00:35;3.97;;;1.67;;
40591;SDS011;26301;42.832;23.918;2023-03-01T04:03:06;2.77;;;1.73;;
40591;SDS011;26301;42.832;23.918;2023-03-01T04:05:32;3.23;;;2.00;;
40591;SDS011;26301;42.832;23.918;2023-03-01T04:07:59;2.67;;;1.73;;
40591;SDS011;26301;42.832;23.918;2023-03-01T04:10:28;2.87;;;1.63;;
40591;SDS011;26301;42.832;23.918;2023-03-01T04:12:54;1.93;;;1.30;;
40591;SDS011;26301;42.832;23.918;2023-03-01T04:15:23;3.23;;;2.00;;
40591;SDS011;26301;42.832;23.918;2023-03-01T04:17:50;3.30;;;1.80;;
40591;SDS011;26301;42.832;23.918;2023-03-01T04:20:19;2.90;;;1.70;;
40591;SDS011;26301;42.832;23.918;2023-03-01T04:22:50;3.92;;;1.77;;
40591;SDS011;26301;42.832;23.918;2023-03-01T04:25:17;2.93;;;1.67;;
40591;SDS011;26301;42.832;23.918;2023-03-01T04:27:43;7.93;;;4.17;;
40591;SDS011;26301;42.832;23.918;2023-03-01T04:30:09;12.30;;;7.97;;
40591;SDS011;26301;42.832;23.918;2023-03-01T04:32:35;15.27;;;6.93;;
40591;SDS011;26301;42.832;23.918;2023-03-01T04:35:01;4.60;;;2.70;;
40591;SDS011;26301;42.832;23.918;2023-03-01T04:37:26;17.07;;;3.77;;
40591;SDS011;26301;42.832;23.918;2023-03-01T04:39:52;38.20;;;3.97;;
40591;SDS011;26301;42.832;23.918;2023-03-01T04:42:18;55.90;;;4.40;;
40591;SDS011;26301;42.832;23.918;2023-03-01T04:44:44;25.73;;;2.80;;
40591;SDS011;26301;42.832;23.918;2023-03-01T04:47:11;62.17;;;3.43;;
40591;SDS011;26301;42.832;23.918;2023-03-01T04:49:37;1.57;;;1.30;;
40591;SDS011;26301;42.832;23.918;2023-03-01T04:52:03;3.57;;;1.43;;
40591;SDS011;26301;42.832;23.918;2023-03-01T04:54:30;2.07;;;1.40;;
40591;SDS011;26301;42.832;23.918;2023-03-01T04:56:57;12.20;;;1.80;;
40591;SDS011;26301;42.832;23.918;2023-03-01T04:59:23;10.00;;;1.57;;
40591;SDS011;26301;42.832;23.918;2023-03-01T05:01:49;2.43;;;1.23;;
40591;SDS011;26301;42.832;23.918;2023-03-01T05:04:15;30.80;;;2.00;;
40591;SDS011;26301;42.832;23.918;2023-03-01T05:06:41;9.77;;;1.40;;
40591;SDS011;26301;42.832;23.918;2023-03-01T05:09:07;14.20;;;1.70;;
40591;SDS011;26301;42.832;23.918;2023-03-01T05:11:32;4.90;;;2.07;;
40591;SDS011;26301;42.832;23.918;2023-03-01T05:16:31;3.07;;;1.30;;
40591;SDS011;26301;42.832;23.918;2023-03-01T05:18:57;1.93;;;0.90;;
40591;SDS011;26301;42.832;23.918;2023-03-01T05:21:23;1.70;;;1.13;;
40591;SDS011;26301;42.832;23.918;2023-03-01T05:23:49;3.00;;;1.40;;
40591;SDS011;26301;42.832;23.918;2023-03-01T05:26:16;1.50;;;1.20;;
40591;SDS011;26301;42.832;23.918;2023-03-01T05:28:45;4.33;;;1.60;;
40591;SDS011;26301;42.832;23.918;2023-03-01T05:31:10;3.90;;;1.97;;
40591;SDS011;26301;42.832;23.918;2023-03-01T05:33:37;5.37;;;2.17;;
40591;SDS011;26301;42.832;23.918;2023-03-01T05:36:03;8.07;;;4.30;;
40591;SDS011;26301;42.832;23.918;2023-03-01T05:38:29;3.83;;;2.00;;
40591;SDS011;26301;42.832;23.918;2023-03-01T05:40:55;5.70;;;2.73;;
40591;SDS011;26301;42.832;23.918;2023-03-01T05:43:20;4.67;;;2.00;;
40591;SDS011;26301;42.832;23.918;2023-03-01T05:45:46;4.47;;;2.20;;
40591;SDS011;26301;42.832;23.918;2023-03-01T05:48:12;3.37;;;1.97;;
40591;SDS011;26301;42.832;23.918;2023-03-01T05:50:39;4.33;;;1.93;;
40591;SDS011;26301;42.832;23.918;2023-03-01T05:53:09;4.47;;;2.00;;
40591;SDS011;26301;42.832;23.918;2023-03-01T05:55:37;3.73;;;1.87;;
40591;SDS011;26301;42.832;23.918;2023-03-01T05:58:05;10.30;;;1.37;;
40591;SDS011;26301;42.832;23.918;2023-03-01T06:00:32;1.40;;;1.00;;
40591;SDS011;26301;42.832;23.918;2023-03-01T06:02:58;2.00;;;1.23;;
40591;SDS011;26301;42.832;23.918;2023-03-01T06:05:25;1.70;;;1.10;;
40591;SDS011;26301;42.832;23.918;2023-03-01T06:07:51;5.40;;;2.03;;
40591;SDS011;26301;42.832;23.918;2023-03-01T06:10:18;2.90;;;1.40;;
40591;SDS011;26301;42.832;23.918;2023-03-01T06:12:45;3.63;;;1.73;;
40591;SDS011;26301;42.832;23.918;2023-03-01T06:15:12;3.07;;;1.70;;
40591;SDS011;26301;42.832;23.918;2023-03-01T06:17:39;3.47;;;1.90;;
40591;SDS011;26301;42.832;23.918;2023-03-01T06:20:12;4.73;;;2.60;;
40591;SDS011;26301;42.832;23.918;2023-03-01T06:22:43;3.90;;;2.00;;
40591;SDS011;26301;42.832;23.918;2023-03-01T06:25:10;1.63;;;1.10;;
40591;SDS011;26301;42.832;23.918;2023-03-01T06:27:37;3.83;;;2.40;;
40591;SDS011;26301;42.832;23.918;2023-03-01T06:30:03;2.77;;;1.90;;
40591;SDS011;26301;42.832;23.918;2023-03-01T06:32:29;1.93;;;1.00;;
40591;SDS011;26301;42.832;23.918;2023-03-01T06:34:56;1.57;;;0.70;;
40591;SDS011;26301;42.832;23.918;2023-03-01T06:37:23;2.00;;;0.90;;
40591;SDS011;26301;42.832;23.918;2023-03-01T06:39:49;0.73;;;0.50;;
40591;SDS011;26301;42.832;23.918;2023-03-01T06:42:15;4.00;;;0.87;;
40591;SDS011;26301;42.832;23.918;2023-03-01T06:44:41;1.73;;;1.07;;
40591;SDS011;26301;42.832;23.918;2023-03-01T06:47:07;1.03;;;0.63;;
40591;SDS011;26301;42.832;23.918;2023-03-01T06:49:33;1.40;;;0.70;;
40591;SDS011;26301;42.832;23.918;2023-03-01T06:51:58;1.00;;;0.70;;
40591;SDS011;26301;42.832;23.918;2023-03-01T06:54:24;0.77;;;0.67;;
40591;SDS011;26301;42.832;23.918;2023-03-01T06:56:49;1.77;;;1.10;;
40591;SDS011;26301;42.832;23.918;2023-03-01T06:59:15;3.10;;;2.50;;
40591;SDS011;26301;42.832;23.918;2023-03-01T07:01:42;1.37;;;0.90;;
40591;SDS011;26301;42.832;23.918;2023-03-01T07:04:08;3.30;;;1.90;;
40591;SDS011;26301;42.832;23.918;2023-03-01T07:06:34;1.17;;;0.70;;
40591;SDS011;26301;42.832;23.918;2023-03-01T07:09:00;1.77;;;1.20;;
40591;SDS011;26301;42.832;23.918;2023-03-01T07:11:26;1.20;;;0.50;;
40591;SDS011;26301;42.832;23.918;2023-03-01T07:13:51;0.87;;;0.60;;
40591;SDS011;26301;42.832;23.918;2023-03-01T07:16:17;0.60;;;0.50;;
40591;SDS011;26301;42.832;23.918;2023-03-01T07:18:43;1.40;;;0.80;;
40591;SDS011;26301;42.832;23.918;2023-03-01T07:21:09;1.93;;;1.00;;
40591;SDS011;26301;42.832;23.918;2023-03-01T07:23:37;1.83;;;0.90;;
40591;SDS011;26301;42.832;23.918;2023-03-01T07:26:03;10.90;;;7.37;;
40591;SDS011;26301;42.832;23.918;2023-03-01T07:28:28;2.90;;;1.63;;
40591;SDS011;26301;42.832;23.918;2023-03-01T07:30:55;3.27;;;1.77;;
40591;SDS011;26301;42.832;23.918;2023-03-01T07:33:26;5.53;;;3.40;;
40591;SDS011;26301;42.832;23.918;2023-03-01T07:35:55;0.87;;;0.70;;
40591;SDS011;26301;42.832;23.918;2023-03-01T07:38:22;0.53;;;0.53;;
40591;SDS011;26301;42.832;23.918;2023-03-01T07:40:48;2.73;;;1.57;;
40591;SDS011;26301;42.832;23.918;2023-03-01T07:43:14;1.83;;;0.93;;
40591;SDS011;26301;42.832;23.918;2023-03-01T07:45:40;0.83;;;0.70;;
40591;SDS011;26301;42.832;23.918;2023-03-01T07:48:05;0.87;;;0.70;;
40591;SDS011;26301;42.832;23.918;2023-03-01T07:50:31;1.03;;;0.67;;
40591;SDS011;26301;42.832;23.918;2023-03-01T07:52:56;1.73;;;0.63;;
40591;SDS011;26301;42.832;23.918;2023-03-01T07:55:22;2.00;;;1.13;;
40591;SDS011;26301;42.832;23.918;2023-03-01T07:57:47;0.70;;;0.70;;
40591;SDS011;26301;42.832;23.918;2023-03-01T08:00:13;1.65;;;1.23;;
40591;SDS011;26301;42.832;23.918;2023-03-01T08:02:39;1.30;;;0.90;;
40591;SDS011;26301;42.832;23.918;2023-03-01T08:05:07;2.47;;;1.13;;
40591;SDS011;26301;42.832;23.918;2023-03-01T08:07:34;2.78;;;1.55;;
40591;SDS011;26301;42.832;23.918;2023-03-01T08:09:59;1.00;;;0.70;;
40591;SDS011;26301;42.832;23.918;2023-03-01T08:12:25;4.55;;;2.42;;
40591;SDS011;26301;42.832;23.918;2023-03-01T08:14:52;7.35;;;3.25;;
40591;SDS011;26301;42.832;23.918;2023-03-01T08:17:18;9.07;;;4.80;;
40591;SDS011;26301;42.832;23.918;2023-03-01T08:19:44;12.52;;;6.90;;
40591;SDS011;26301;42.832;23.918;2023-03-01T08:22:10;3.20;;;1.33;;
40591;SDS011;26301;42.832;23.918;2023-03-01T08:24:35;6.63;;;3.53;;
40591;SDS011;26301;42.832;23.918;2023-03-01T08:27:01;4.30;;;2.10;;
40591;SDS011;26301;42.832;23.918;2023-03-01T08:29:28;2.13;;;1.40;;
40591;SDS011;26301;42.832;23.918;2023-03-01T08:31:56;14.50;;;9.57;;
40591;SDS011;26301;42.832;23.918;2023-03-01T08:34:21;3.35;;;2.20;;
40591;SDS011;26301;42.832;23.918;2023-03-01T08:36:47;5.07;;;2.67;;
40591;SDS011;26301;42.832;23.918;2023-03-01T08:39:14;2.78;;;1.90;;
40591;SDS011;26301;42.832;23.918;2023-03-01T08:41:41;3.65;;;1.75;;
40591;SDS011;26301;42.832;23.918;2023-03-01T08:44:07;2.40;;;1.80;;
40591;SDS011;26301;42.832;23.918;2023-03-01T08:46:36;3.92;;;2.30;;
40591;SDS011;26301;42.832;23.918;2023-03-01T08:49:06;2.83;;;1.77;;
40591;SDS011;26301;42.832;23.918;2023-03-01T08:51:34;2.67;;;1.83;;
40591;SDS011;26301;42.832;23.918;2023-03-01T08:54:10;3.67;;;2.50;;
40591;SDS011;26301;42.832;23.918;2023-03-01T08:56:40;18.70;;;9.40;;
40591;SDS011;26301;42.832;23.918;2023-03-01T08:59:05;15.32;;;8.60;;
40591;SDS011;26301;42.832;23.918;2023-03-01T09:01:32;4.47;;;3.08;;
40591;SDS011;26301;42.832;23.918;2023-03-01T09:03:58;3.03;;;1.90;;
40591;SDS011;26301;42.832;23.918;2023-03-01T09:06:23;8.02;;;3.78;;
40591;SDS011;26301;42.832;23.918;2023-03-01T09:08:49;6.23;;;2.33;;
40591;SDS011;26301;42.832;23.918;2023-03-01T09:11:18;12.13;;;6.40;;
40591;SDS011;26301;42.832;23.918;2023-03-01T09:13:46;5.97;;;3.28;;
40591;SDS011;26301;42.832;23.918;2023-03-01T09:16:13;16.33;;;10.07;;
40591;SDS011;26301;42.832;23.918;2023-03-01T09:18:40;11.25;;;7.43;;
40591;SDS011;26301;42.832;23.918;2023-03-01T09:23:36;35.22;;;31.58;;
40591;SDS011;26301;42.832;23.918;2023-03-01T09:26:04;7.95;;;6.65;;
40591;SDS011;26301;42.832;23.918;2023-03-01T09:28:38;5.30;;;3.60;;
40591;SDS011;26301;42.832;23.918;2023-03-01T09:31:05;7.43;;;5.53;;
40591;SDS011;26301;42.832;23.918;2023-03-01T09:33:32;4.83;;;3.00;;
40591;SDS011;26301;42.832;23.918;2023-03-01T09:36:02;7.60;;;3.85;;
40591;SDS011;26301;42.832;23.918;2023-03-01T09:38:30;4.88;;;3.47;;
40591;SDS011;26301;42.832;23.918;2023-03-01T09:40:56;3.70;;;2.50;;
40591;SDS011;26301;42.832;23.918;2023-03-01T09:46:14;5.03;;;3.13;;
40591;SDS011;26301;42.832;23.918;2023-03-01T09:48:44;5.97;;;3.00;;
40591;SDS011;26301;42.832;23.918;2023-03-01T09:51:24;5.37;;;2.67;;
40591;SDS011;26301;42.832;23.918;2023-03-01T09:53:54;5.18;;;4.05;;
40591;SDS011;26301;42.832;23.918;2023-03-01T09:56:24;5.38;;;3.35;;
40591;SDS011;26301;42.832;23.918;2023-03-01T10:06:59;3.97;;;2.70;;
40591;SDS011;26301;42.832;23.918;2023-03-01T10:09:31;5.30;;;2.53;;
40591;SDS011;26301;42.832;23.918;2023-03-01T10:12:00;4.37;;;2.67;;
40591;SDS011;26301;42.832;23.918;2023-03-01T10:14:32;3.63;;;2.50;;
40591;SDS011;26301;42.832;23.918;2023-03-01T10:19:49;9.15;;;5.55;;
40591;SDS011;26301;42.832;23.918;2023-03-01T10:22:15;4.75;;;3.08;;
40591;SDS011;26301;42.832;23.918;2023-03-01T10:24:46;4.13;;;2.38;;
40591;SDS011;26301;42.832;23.918;2023-03-01T10:27:21;4.50;;;2.40;;
40591;SDS011;26301;42.832;23.918;2023-03-01T10:32:31;3.20;;;1.70;;
40591;SDS011;26301;42.832;23.918;2023-03-01T10:34:56;2.78;;;1.70;;
40591;SDS011;26301;42.832;23.918;2023-03-01T10:37:22;3.13;;;1.67;;
40591;SDS011;26301;42.832;23.918;2023-03-01T10:42:46;12.27;;;6.65;;
40591;SDS011;26301;42.832;23.918;2023-03-01T10:45:36;49.00;;;25.27;;
40591;SDS011;26301;42.832;23.918;2023-03-01T10:50:39;8.98;;;5.30;;
40591;SDS011;26301;42.832;23.918;2023-03-01T10:56:12;4.15;;;1.92;;
40591;SDS011;26301;42.832;23.918;2023-03-01T10:58:41;3.28;;;2.53;;
40591;SDS011;26301;42.832;23.918;2023-03-01T11:04:03;3.40;;;2.47;;
40591;SDS011;26301;42.832;23.918;2023-03-01T11:06:28;4.78;;;3.45;;
40591;SDS011;26301;42.832;23.918;2023-03-01T11:08:54;5.35;;;3.25;;
40591;SDS011;26301;42.832;23.918;2023-03-01T11:13:55;3.88;;;2.63;;
40591;SDS011;26301;42.832;23.918;2023-03-01T11:16:27;5.63;;;4.72;;
40591;SDS011;26301;42.832;23.918;2023-03-01T11:18:58;8.73;;;4.00;;
40591;SDS011;26301;42.832;23.918;2023-03-01T11:21:26;6.95;;;4.05;;
40591;SDS011;26301;42.832;23.918;2023-03-01T11:23:56;6.15;;;5.00;;
40591;SDS011;26301;42.832;23.918;2023-03-01T11:26:25;6.78;;;4.20;;
40591;SDS011;26301;42.832;23.918;2023-03-01T11:28:54;7.10;;;4.50;;
40591;SDS011;26301;42.832;23.918;2023-03-01T11:31:23;7.37;;;4.87;;
40591;SDS011;26301;42.832;23.918;2023-03-01T11:34:27;6.68;;;4.25;;
40591;SDS011;26301;42.832;23.918;2023-03-01T11:42:17;6.10;;;4.57;;
40591;SDS011;26301;42.832;23.918;2023-03-01T11:44:49;6.45;;;3.85;;
40591;SDS011;26301;42.832;23.918;2023-03-01T12:02:47;8.35;;;5.95;;
40591;SDS011;26301;42.832;23.918;2023-03-01T12:08:54;7.22;;;4.82;;
40591;SDS011;26301;42.832;23.918;2023-03-01T12:14:13;5.10;;;3.22;;
40591;SDS011;26301;42.832;23.918;2023-03-01T12:19:41;4.60;;;3.05;;
40591;SDS011;26301;42.832;23.918;2023-03-01T12:25:30;5.88;;;3.60;;
40591;SDS011;26301;42.832;23.918;2023-03-01T12:42:01;7.78;;;3.25;;
40591;SDS011;26301;42.832;23.918;2023-03-01T12:47:47;6.20;;;3.42;;
40591;SDS011;26301;42.832;23.918;2023-03-01T12:50:26;4.88;;;3.42;;
40591;SDS011;26301;42.832;23.918;2023-03-01T12:53:02;5.03;;;2.83;;
40591;SDS011;26301;42.832;23.918;2023-03-01T12:55:29;5.05;;;3.10;;
40591;SDS011;26301;42.832;23.918;2023-03-01T12:58:15;4.15;;;2.90;;
40591;SDS011;26301;42.832;23.918;2023-03-01T13:01:08;5.65;;;4.00;;
40591;SDS011;26301;42.832;23.918;2023-03-01T13:12:43;6.80;;;4.35;;
40591;SDS011;26301;42.832;23.918;2023-03-01T13:15:31;9.88;;;6.10;;
40591;SDS011;26301;42.832;23.918;2023-03-01T13:17:59;7.85;;;5.25;;
40591;SDS011;26301;42.832;23.918;2023-03-01T13:20:33;7.70;;;4.93;;
40591;SDS011;26301;42.832;23.918;2023-03-01T13:23:13;4.38;;;2.97;;
40591;SDS011;26301;42.832;23.918;2023-03-01T13:33:59;10.80;;;6.97;;
40591;SDS011;26301;42.832;23.918;2023-03-01T13:46:42;5.07;;;3.63;;
40591;SDS011;26301;42.832;23.918;2023-03-01T13:49:11;8.43;;;3.33;;
40591;SDS011;26301;42.832;23.918;2023-03-01T13:51:46;5.47;;;3.53;;
40591;SDS011;26301;42.832;23.918;2023-03-01T13:54:12;6.07;;;4.07;;
40591;SDS011;26301;42.832;23.918;2023-03-01T13:56:40;6.38;;;4.10;;
40591;SDS011;26301;42.832;23.918;2023-03-01T13:59:13;5.65;;;3.65;;
40591;SDS011;26301;42.832;23.918;2023-03-01T14:01:42;6.47;;;3.88;;
40591;SDS011;26301;42.832;23.918;2023-03-01T14:04:19;9.07;;;5.72;;
40591;SDS011;26301;42.832;23.918;2023-03-01T14:06:51;7.28;;;4.65;;
40591;SDS011;26301;42.832;23.918;2023-03-01T14:09:24;8.85;;;6.45;;
40591;SDS011;26301;42.832;23.918;2023-03-01T14:12:02;8.20;;;4.63;;
40591;SDS011;26301;42.832;23.918;2023-03-01T14:20:41;7.05;;;4.20;;
40591;SDS011;26301;42.832;23.918;2023-03-01T14:23:14;9.13;;;4.85;;
40591;SDS011;26301;42.832;23.918;2023-03-01T14:25:47;18.88;;;6.78;;
40591;SDS011;26301;42.832;23.918;2023-03-01T14:31:21;15.35;;;7.22;;
40591;SDS011;26301;42.832;23.918;2023-03-01T14:34:01;10.23;;;4.90;;
40591;SDS011;26301;42.832;23.918;2023-03-01T14:36:28;25.57;;;5.53;;
40591;SDS011;26301;42.832;23.918;2023-03-01T14:38:55;8.82;;;5.40;;
40591;SDS011;26301;42.832;23.918;2023-03-01T14:41:24;14.57;;;6.93;;
40591;SDS011;26301;42.832;23.918;2023-03-01T14:43:55;18.92;;;10.70;;
40591;SDS011;26301;42.832;23.918;2023-03-01T14:46:34;9.98;;;6.10;;
40591;SDS011;26301;42.832;23.918;2023-03-01T14:49:11;10.05;;;5.22;;
40591;SDS011;26301;42.832;23.918;2023-03-01T14:51:50;13.65;;;7.25;;
40591;SDS011;26301;42.832;23.918;2023-03-01T14:54:27;16.42;;;7.22;;
40591;SDS011;26301;42.832;23.918;2023-03-01T14:59:44;14.07;;;5.20;;
40591;SDS011;26301;42.832;23.918;2023-03-01T15:02:13;18.17;;;4.15;;
40591;SDS011;26301;42.832;23.918;2023-03-01T15:04:43;14.35;;;6.07;;
40591;SDS011;26301;42.832;23.918;2023-03-01T15:07:12;26.42;;;5.85;;
40591;SDS011;26301;42.832;23.918;2023-03-01T15:09:39;36.88;;;9.93;;
40591;SDS011;26301;42.832;23.918;2023-03-01T15:14:52;21.25;;;5.40;;
40591;SDS011;26301;42.832;23.918;2023-03-01T15:17:31;30.00;;;5.57;;
40591;SDS011;26301;42.832;23.918;2023-03-01T15:20:00;9.73;;;6.20;;
40591;SDS011;26301;42.832;23.918;2023-03-01T15:22:47;31.07;;;12.73;;
40591;SDS011;26301;42.832;23.918;2023-03-01T15:25:16;18.63;;;6.03;;
40591;SDS011;26301;42.832;23.918;2023-03-01T15:27:47;6.00;;;4.20;;
40591;SDS011;26301;42.832;23.918;2023-03-01T15:30:22;7.32;;;3.20;;
40591;SDS011;26301;42.832;23.918;2023-03-01T15:35:44;13.05;;;6.85;;
40591;SDS011;26301;42.832;23.918;2023-03-01T15:43:50;13.70;;;5.22;;
40591;SDS011;26301;42.832;23.918;2023-03-01T15:46:32;15.85;;;6.57;;
40591;SDS011;26301;42.832;23.918;2023-03-01T15:49:00;10.50;;;4.70;;
40591;SDS011;26301;42.832;23.918;2023-03-01T15:51:36;11.32;;;5.35;;
40591;SDS011;26301;42.832;23.918;2023-03-01T15:54:05;90.43;;;11.83;;
40591;SDS011;26301;42.832;23.918;2023-03-01T15:56:37;88.15;;;11.18;;
40591;SDS011;26301;42.832;23.918;2023-03-01T15:59:03;23.13;;;8.07;;
40591;SDS011;26301;42.832;23.918;2023-03-01T16:01:29;35.33;;;8.23;;
40591;SDS011;26301;42.832;23.918;2023-03-01T16:03:55;99.80;;;9.73;;
40591;SDS011;26301;42.832;23.918;2023-03-01T16:06:23;56.30;;;9.90;;
40591;SDS011;26301;42.832;23.918;2023-03-01T16:08:48;36.90;;;7.70;;
40591;SDS011;26301;42.832;23.918;2023-03-01T16:11:15;60.85;;;7.75;;
40591;SDS011;26301;42.832;23.918;2023-03-01T16:13:43;71.77;;;7.77;;
40591;SDS011;26301;42.832;23.918;2023-03-01T16:16:10;17.45;;;6.95;;
40591;SDS011;26301;42.832;23.918;2023-03-01T16:18:44;67.60;;;10.68;;
40591;SDS011;26301;42.832;23.918;2023-03-01T16:21:12;102.18;;;11.10;;
40591;SDS011;26301;42.832;23.918;2023-03-01T16:23:40;115.80;;;11.52;;
40591;SDS011;26301;42.832;23.918;2023-03-01T16:26:06;51.00;;;10.23;;
40591;SDS011;26301;42.832;23.918;2023-03-01T16:28:32;72.32;;;9.55;;
40591;SDS011;26301;42.832;23.918;2023-03-01T16:30:58;82.18;;;10.82;;
40591;SDS011;26301;42.832;23.918;2023-03-01T16:33:23;198.77;;;13.38;;
40591;SDS011;26301;42.832;23.918;2023-03-01T16:35:49;154.68;;;11.18;;
40591;SDS011;26301;42.832;23.918;2023-03-01T16:38:15;151.65;;;14.40;;
40591;SDS011;26301;42.832;23.918;2023-03-01T16:40:40;213.35;;;16.15;;
40591;SDS011;26301;42.832;23.918;2023-03-01T16:43:12;195.15;;;18.02;;
40591;SDS011;26301;42.832;23.918;2023-03-01T16:45:38;311.00;;;36.00;;
40591;SDS011;26301;42.832;23.918;2023-03-01T16:48:05;354.92;;;61.38;;
40591;SDS011;26301;42.832;23.918;2023-03-01T16:50:31;240.57;;;21.60;;
40591;SDS011;26301;42.832;23.918;2023-03-01T16:52:57;247.30;;;25.83;;
40591;SDS011;26301;42.832;23.918;2023-03-01T16:55:22;185.27;;;12.20;;
40591;SDS011;26301;42.832;23.918;2023-03-01T16:57:48;215.95;;;15.18;;
40591;SDS011;26301;42.832;23.918;2023-03-01T17:00:14;171.47;;;17.00;;
40591;SDS011;26301;42.832;23.918;2023-03-01T17:02:40;284.15;;;18.33;;
40591;SDS011;26301;42.832;23.918;2023-03-01T17:05:07;271.77;;;18.77;;
40591;SDS011;26301;42.832;23.918;2023-03-01T17:07:33;236.10;;;15.90;;